sensor_id;sensor_type;location;lat;lon;timestamp;P1;durP1;ratioP1;P2;durP2;ratioP2
40122;SDS011;25832;45.490;4.912;2022-11-12T00:00:24;19.58;;;12.70;;
40122;SDS011;25832;45.490;4.912;2022-11-12T00:02:50;17.90;;;12.05;;
40122;SDS011;25832;45.490;4.912;2022-11-12T00:05:15;16.50;;;11.35;;
40122;SDS011;25832;45.490;4.912;2022-11-12T00:07:41;20.92;;;11.48;;
40122;SDS011;25832;45.490;4.912;2022-11-12T00:10:07;20.15;;;11.40;;
40122;SDS011;25832;45.490;4.912;2022-11-12T00:12:33;29.05;;;15.90;;
40122;SDS011;25832;45.490;4.912;2022-11-12T00:14:59;17.52;;;10.95;;
40122;SDS011;25832;45.490;4.912;2022-11-12T00:17:24;13.32;;;9.77;;
40122;SDS011;25832;45.490;4.912;2022-11-12T00:19:50;14.05;;;9.32;;
40122;SDS011;25832;45.490;4.912;2022-11-12T00:22:16;23.10;;;14.32;;
40122;SDS011;25832;45.490;4.912;2022-11-12T00:24:41;25.55;;;15.18;;
40122;SDS011;25832;45.490;4.912;2022-11-12T00:27:07;27.23;;;13.75;;
40122;SDS011;25832;45.490;4.912;2022-11-12T00:29:32;19.10;;;11.50;;
40122;SDS011;25832;45.490;4.912;2022-11-12T00:31:58;18.10;;;11.88;;
40122;SDS011;25832;45.490;4.912;2022-11-12T00:34:24;16.25;;;10.65;;
40122;SDS011;25832;45.490;4.912;2022-11-12T00:36:49;13.02;;;9.13;;
40122;SDS011;25832;45.490;4.912;2022-11-12T00:39:15;15.68;;;9.75;;
40122;SDS011;25832;45.490;4.912;2022-11-12T00:41:40;16.02;;;8.82;;
40122;SDS011;25832;45.490;4.912;2022-11-12T00:44:06;15.68;;;8.95;;
40122;SDS011;25832;45.490;4.912;2022-11-12T00:46:32;14.52;;;8.15;;
40122;SDS011;25832;45.490;4.912;2022-11-12T00:48:58;14.80;;;8.98;;
40122;SDS011;25832;45.490;4.912;2022-11-12T00:51:24;15.20;;;7.55;;
40122;SDS011;25832;45.490;4.912;2022-11-12T00:53:50;8.88;;;5.95;;
40122;SDS011;25832;45.490;4.912;2022-11-12T00:56:16;9.88;;;6.13;;
40122;SDS011;25832;45.490;4.912;2022-11-12T00:58:41;13.07;;;7.00;;
40122;SDS011;25832;45.490;4.912;2022-11-12T01:01:08;11.20;;;6.82;;
40122;SDS011;25832;45.490;4.912;2022-11-12T01:03:36;14.63;;;8.13;;
40122;SDS011;25832;45.490;4.912;2022-11-12T01:06:09;24.75;;;13.30;;
40122;SDS011;25832;45.490;4.912;2022-11-12T01:08:36;25.80;;;15.45;;
40122;SDS011;25832;45.490;4.912;2022-11-12T01:11:06;22.33;;;13.13;;
40122;SDS011;25832;45.490;4.912;2022-11-12T01:13:32;24.45;;;12.13;;
40122;SDS011;25832;45.490;4.912;2022-11-12T01:15:57;28.00;;;14.15;;
40122;SDS011;25832;45.490;4.912;2022-11-12T01:18:23;11.13;;;7.15;;
40122;SDS011;25832;45.490;4.912;2022-11-12T01:20:49;12.73;;;5.30;;
40122;SDS011;25832;45.490;4.912;2022-11-12T01:23:14;18.95;;;5.68;;
40122;SDS011;25832;45.490;4.912;2022-11-12T01:25:40;9.18;;;5.10;;
40122;SDS011;25832;45.490;4.912;2022-11-12T01:28:06;10.07;;;6.32;;
40122;SDS011;25832;45.490;4.912;2022-11-12T01:30:31;8.23;;;5.18;;
40122;SDS011;25832;45.490;4.912;2022-11-12T01:32:57;7.82;;;4.68;;
40122;SDS011;25832;45.490;4.912;2022-11-12T01:35:22;7.80;;;4.75;;
40122;SDS011;25832;45.490;4.912;2022-11-12T01:37:48;8.00;;;5.70;;
40122;SDS011;25832;45.490;4.912;2022-11-12T01:40:14;12.30;;;6.93;;
40122;SDS011;25832;45.490;4.912;2022-11-12T01:42:40;14.85;;;6.78;;
40122;SDS011;25832;45.490;4.912;2022-11-12T01:45:13;13.10;;;8.70;;
40122;SDS011;25832;45.490;4.912;2022-11-12T01:47:41;13.25;;;7.35;;
40122;SDS011;25832;45.490;4.912;2022-11-12T01:52:51;14.52;;;7.50;;
40122;SDS011;25832;45.490;4.912;2022-11-12T01:55:28;9.55;;;6.05;;
40122;SDS011;25832;45.490;4.912;2022-11-12T01:58:10;15.70;;;7.20;;
40122;SDS011;25832;45.490;4.912;2022-11-12T02:00:39;10.23;;;6.45;;
40122;SDS011;25832;45.490;4.912;2022-11-12T02:03:07;12.43;;;5.78;;
40122;SDS011;25832;45.490;4.912;2022-11-12T02:05:39;14.57;;;6.47;;
40122;SDS011;25832;45.490;4.912;2022-11-12T02:08:06;22.40;;;9.80;;
40122;SDS011;25832;45.490;4.912;2022-11-12T02:10:35;17.15;;;9.80;;
40122;SDS011;25832;45.490;4.912;2022-11-12T02:13:02;18.15;;;9.43;;
40122;SDS011;25832;45.490;4.912;2022-11-12T02:15:46;13.65;;;8.25;;
40122;SDS011;25832;45.490;4.912;2022-11-12T02:18:12;14.65;;;10.20;;
40122;SDS011;25832;45.490;4.912;2022-11-12T02:20:38;16.77;;;10.77;;
40122;SDS011;25832;45.490;4.912;2022-11-12T02:23:04;19.80;;;11.80;;
40122;SDS011;25832;45.490;4.912;2022-11-12T02:25:31;26.02;;;13.13;;
40122;SDS011;25832;45.490;4.912;2022-11-12T02:27:58;25.80;;;15.10;;
40122;SDS011;25832;45.490;4.912;2022-11-12T02:30:33;23.42;;;14.60;;
40122;SDS011;25832;45.490;4.912;2022-11-12T02:33:01;29.50;;;17.33;;
40122;SDS011;25832;45.490;4.912;2022-11-12T02:35:27;26.77;;;15.40;;
40122;SDS011;25832;45.490;4.912;2022-11-12T02:37:54;29.52;;;15.30;;
40122;SDS011;25832;45.490;4.912;2022-11-12T02:40:19;24.38;;;13.13;;
40122;SDS011;25832;45.490;4.912;2022-11-12T02:42:45;21.40;;;13.95;;
40122;SDS011;25832;45.490;4.912;2022-11-12T02:45:11;20.38;;;13.48;;
40122;SDS011;25832;45.490;4.912;2022-11-12T02:47:37;21.42;;;12.65;;
40122;SDS011;25832;45.490;4.912;2022-11-12T02:50:03;20.13;;;11.40;;
40122;SDS011;25832;45.490;4.912;2022-11-12T02:52:29;18.90;;;12.25;;
40122;SDS011;25832;45.490;4.912;2022-11-12T02:54:57;16.00;;;11.50;;
40122;SDS011;25832;45.490;4.912;2022-11-12T02:57:23;19.10;;;11.10;;
40122;SDS011;25832;45.490;4.912;2022-11-12T02:59:49;17.17;;;11.48;;
40122;SDS011;25832;45.490;4.912;2022-11-12T03:02:14;19.20;;;11.48;;
40122;SDS011;25832;45.490;4.912;2022-11-12T03:04:40;16.73;;;10.55;;
40122;SDS011;25832;45.490;4.912;2022-11-12T03:07:06;22.20;;;10.57;;
40122;SDS011;25832;45.490;4.912;2022-11-12T03:09:31;21.45;;;11.90;;
40122;SDS011;25832;45.490;4.912;2022-11-12T03:11:57;15.68;;;9.55;;
40122;SDS011;25832;45.490;4.912;2022-11-12T03:14:23;17.58;;;10.68;;
40122;SDS011;25832;45.490;4.912;2022-11-12T03:16:49;15.60;;;9.88;;
40122;SDS011;25832;45.490;4.912;2022-11-12T03:19:15;14.93;;;9.20;;
40122;SDS011;25832;45.490;4.912;2022-11-12T03:21:40;13.27;;;9.50;;
40122;SDS011;25832;45.490;4.912;2022-11-12T03:24:06;18.48;;;10.98;;
40122;SDS011;25832;45.490;4.912;2022-11-12T03:26:32;16.20;;;9.52;;
40122;SDS011;25832;45.490;4.912;2022-11-12T03:28:57;15.98;;;9.18;;
40122;SDS011;25832;45.490;4.912;2022-11-12T03:31:23;13.25;;;9.05;;
40122;SDS011;25832;45.490;4.912;2022-11-12T03:33:49;13.23;;;8.13;;
40122;SDS011;25832;45.490;4.912;2022-11-12T03:36:15;14.30;;;7.20;;
40122;SDS011;25832;45.490;4.912;2022-11-12T03:38:40;8.40;;;6.47;;
40122;SDS011;25832;45.490;4.912;2022-11-12T03:41:06;9.40;;;6.97;;
40122;SDS011;25832;45.490;4.912;2022-11-12T03:43:31;10.88;;;7.05;;
40122;SDS011;25832;45.490;4.912;2022-11-12T03:45:57;10.35;;;6.75;;
40122;SDS011;25832;45.490;4.912;2022-11-12T03:48:23;9.25;;;5.30;;
40122;SDS011;25832;45.490;4.912;2022-11-12T03:50:48;8.90;;;6.03;;
40122;SDS011;25832;45.490;4.912;2022-11-12T03:53:14;13.85;;;6.38;;
40122;SDS011;25832;45.490;4.912;2022-11-12T03:55:39;8.30;;;6.15;;
40122;SDS011;25832;45.490;4.912;2022-11-12T03:58:05;7.63;;;5.93;;
40122;SDS011;25832;45.490;4.912;2022-11-12T04:00:31;6.53;;;4.60;;
40122;SDS011;25832;45.490;4.912;2022-11-12T04:02:57;9.70;;;6.88;;
40122;SDS011;25832;45.490;4.912;2022-11-12T04:05:23;8.52;;;5.82;;
40122;SDS011;25832;45.490;4.912;2022-11-12T04:08:11;9.10;;;5.88;;
40122;SDS011;25832;45.490;4.912;2022-11-12T04:10:58;8.02;;;6.07;;
40122;SDS011;25832;45.490;4.912;2022-11-12T04:13:23;10.85;;;5.72;;
40122;SDS011;25832;45.490;4.912;2022-11-12T04:15:53;7.88;;;5.25;;
40122;SDS011;25832;45.490;4.912;2022-11-12T04:18:37;10.77;;;5.72;;
40122;SDS011;25832;45.490;4.912;2022-11-12T04:21:25;8.40;;;5.78;;
40122;SDS011;25832;45.490;4.912;2022-11-12T04:24:13;9.02;;;6.72;;
40122;SDS011;25832;45.490;4.912;2022-11-12T04:26:59;10.93;;;6.53;;
40122;SDS011;25832;45.490;4.912;2022-11-12T04:29:24;9.50;;;6.25;;
40122;SDS011;25832;45.490;4.912;2022-11-12T04:32:08;6.85;;;5.25;;
40122;SDS011;25832;45.490;4.912;2022-11-12T04:34:34;8.38;;;6.07;;
40122;SDS011;25832;45.490;4.912;2022-11-12T04:37:03;8.02;;;4.63;;
40122;SDS011;25832;45.490;4.912;2022-11-12T04:39:30;6.03;;;4.28;;
40122;SDS011;25832;45.490;4.912;2022-11-12T04:41:55;19.13;;;5.32;;
40122;SDS011;25832;45.490;4.912;2022-11-12T04:44:40;17.17;;;5.97;;
40122;SDS011;25832;45.490;4.912;2022-11-12T04:47:26;5.57;;;4.55;;
40122;SDS011;25832;45.490;4.912;2022-11-12T04:50:03;23.42;;;6.35;;
40122;SDS011;25832;45.490;4.912;2022-11-12T04:52:37;20.65;;;5.50;;
40122;SDS011;25832;45.490;4.912;2022-11-12T04:55:03;12.27;;;4.78;;
40122;SDS011;25832;45.490;4.912;2022-11-12T04:57:29;32.70;;;5.78;;
40122;SDS011;25832;45.490;4.912;2022-11-12T04:59:55;28.95;;;5.38;;
40122;SDS011;25832;45.490;4.912;2022-11-12T05:02:20;58.92;;;5.88;;
40122;SDS011;25832;45.490;4.912;2022-11-12T05:04:46;16.30;;;4.25;;
40122;SDS011;25832;45.490;4.912;2022-11-12T05:07:13;36.83;;;5.55;;
40122;SDS011;25832;45.490;4.912;2022-11-12T05:09:39;46.97;;;5.57;;
40122;SDS011;25832;45.490;4.912;2022-11-12T05:12:05;14.43;;;4.47;;
40122;SDS011;25832;45.490;4.912;2022-11-12T05:14:31;11.07;;;4.80;;
40122;SDS011;25832;45.490;4.912;2022-11-12T05:16:57;8.85;;;4.68;;
40122;SDS011;25832;45.490;4.912;2022-11-12T05:19:23;13.15;;;4.63;;
40122;SDS011;25832;45.490;4.912;2022-11-12T05:21:48;9.77;;;4.30;;
40122;SDS011;25832;45.490;4.912;2022-11-12T05:24:29;14.07;;;5.40;;
40122;SDS011;25832;45.490;4.912;2022-11-12T05:26:56;10.02;;;5.88;;
40122;SDS011;25832;45.490;4.912;2022-11-12T05:29:22;11.10;;;5.03;;
40122;SDS011;25832;45.490;4.912;2022-11-12T05:31:47;10.77;;;4.47;;
40122;SDS011;25832;45.490;4.912;2022-11-12T05:34:13;10.48;;;5.78;;
40122;SDS011;25832;45.490;4.912;2022-11-12T05:36:39;7.63;;;4.55;;
40122;SDS011;25832;45.490;4.912;2022-11-12T05:39:04;6.72;;;5.25;;
40122;SDS011;25832;45.490;4.912;2022-11-12T05:41:30;8.95;;;5.45;;
40122;SDS011;25832;45.490;4.912;2022-11-12T05:43:56;13.80;;;5.60;;
40122;SDS011;25832;45.490;4.912;2022-11-12T05:46:21;7.82;;;5.00;;
40122;SDS011;25832;45.490;4.912;2022-11-12T05:48:47;8.55;;;4.13;;
40122;SDS011;25832;45.490;4.912;2022-11-12T05:51:13;7.65;;;4.70;;
40122;SDS011;25832;45.490;4.912;2022-11-12T05:53:39;10.38;;;4.97;;
40122;SDS011;25832;45.490;4.912;2022-11-12T05:56:05;6.50;;;4.53;;
40122;SDS011;25832;45.490;4.912;2022-11-12T05:58:33;5.50;;;4.18;;
40122;SDS011;25832;45.490;4.912;2022-11-12T06:01:00;7.75;;;5.47;;
40122;SDS011;25832;45.490;4.912;2022-11-12T06:03:26;7.28;;;5.25;;
40122;SDS011;25832;45.490;4.912;2022-11-12T06:05:53;8.32;;;5.35;;
40122;SDS011;25832;45.490;4.912;2022-11-12T06:08:18;9.70;;;5.28;;
40122;SDS011;25832;45.490;4.912;2022-11-12T06:10:49;9.60;;;6.00;;
40122;SDS011;25832;45.490;4.912;2022-11-12T06:13:16;10.32;;;6.20;;
40122;SDS011;25832;45.490;4.912;2022-11-12T06:15:42;10.02;;;5.75;;
40122;SDS011;25832;45.490;4.912;2022-11-12T06:18:08;9.68;;;5.75;;
40122;SDS011;25832;45.490;4.912;2022-11-12T06:20:35;7.93;;;5.43;;
40122;SDS011;25832;45.490;4.912;2022-11-12T06:23:01;7.90;;;5.80;;
40122;SDS011;25832;45.490;4.912;2022-11-12T06:25:27;9.25;;;6.05;;
40122;SDS011;25832;45.490;4.912;2022-11-12T06:27:53;7.88;;;5.45;;
40122;SDS011;25832;45.490;4.912;2022-11-12T06:30:18;13.68;;;5.82;;
40122;SDS011;25832;45.490;4.912;2022-11-12T06:32:47;8.63;;;5.60;;
40122;SDS011;25832;45.490;4.912;2022-11-12T06:35:14;8.05;;;4.60;;
40122;SDS011;25832;45.490;4.912;2022-11-12T06:37:40;16.25;;;5.88;;
40122;SDS011;25832;45.490;4.912;2022-11-12T06:40:06;13.77;;;5.85;;
40122;SDS011;25832;45.490;4.912;2022-11-12T06:42:32;16.00;;;6.30;;
40122;SDS011;25832;45.490;4.912;2022-11-12T06:44:58;16.02;;;6.45;;
40122;SDS011;25832;45.490;4.912;2022-11-12T06:47:24;10.43;;;6.82;;
40122;SDS011;25832;45.490;4.912;2022-11-12T06:49:50;13.00;;;7.15;;
40122;SDS011;25832;45.490;4.912;2022-11-12T06:52:15;13.63;;;6.50;;
40122;SDS011;25832;45.490;4.912;2022-11-12T06:54:41;9.98;;;5.78;;
40122;SDS011;25832;45.490;4.912;2022-11-12T06:57:07;14.32;;;6.35;;
40122;SDS011;25832;45.490;4.912;2022-11-12T06:59:33;24.83;;;6.93;;
40122;SDS011;25832;45.490;4.912;2022-11-12T07:01:58;20.20;;;6.97;;
40122;SDS011;25832;45.490;4.912;2022-11-12T07:04:24;18.77;;;7.80;;
40122;SDS011;25832;45.490;4.912;2022-11-12T07:06:50;32.03;;;8.23;;
40122;SDS011;25832;45.490;4.912;2022-11-12T07:09:15;18.48;;;8.70;;
40122;SDS011;25832;45.490;4.912;2022-11-12T07:11:41;25.00;;;7.72;;
40122;SDS011;25832;45.490;4.912;2022-11-12T07:14:07;12.02;;;5.72;;
40122;SDS011;25832;45.490;4.912;2022-11-12T07:16:33;26.75;;;7.40;;
40122;SDS011;25832;45.490;4.912;2022-11-12T07:18:59;20.33;;;6.03;;
40122;SDS011;25832;45.490;4.912;2022-11-12T07:21:25;13.23;;;5.32;;
40122;SDS011;25832;45.490;4.912;2022-11-12T07:23:51;11.48;;;5.05;;
40122;SDS011;25832;45.490;4.912;2022-11-12T07:26:18;25.98;;;6.82;;
40122;SDS011;25832;45.490;4.912;2022-11-12T07:28:46;29.73;;;8.10;;
40122;SDS011;25832;45.490;4.912;2022-11-12T07:31:13;17.50;;;6.20;;
40122;SDS011;25832;45.490;4.912;2022-11-12T07:33:40;22.23;;;4.82;;
40122;SDS011;25832;45.490;4.912;2022-11-12T07:36:07;7.53;;;4.60;;
40122;SDS011;25832;45.490;4.912;2022-11-12T07:38:35;11.73;;;5.68;;
40122;SDS011;25832;45.490;4.912;2022-11-12T07:41:04;7.60;;;5.13;;
40122;SDS011;25832;45.490;4.912;2022-11-12T07:43:38;7.03;;;4.07;;
40122;SDS011;25832;45.490;4.912;2022-11-12T07:46:14;8.32;;;4.82;;
40122;SDS011;25832;45.490;4.912;2022-11-12T07:48:47;7.35;;;4.65;;
40122;SDS011;25832;45.490;4.912;2022-11-12T07:51:14;10.00;;;4.60;;
40122;SDS011;25832;45.490;4.912;2022-11-12T07:53:43;12.05;;;5.53;;
40122;SDS011;25832;45.490;4.912;2022-11-12T07:56:11;6.80;;;5.40;;
40122;SDS011;25832;45.490;4.912;2022-11-12T07:58:38;5.47;;;4.65;;
40122;SDS011;25832;45.490;4.912;2022-11-12T08:01:07;8.32;;;4.72;;
40122;SDS011;25832;45.490;4.912;2022-11-12T08:03:52;7.95;;;4.82;;
40122;SDS011;25832;45.490;4.912;2022-11-12T08:06:17;7.30;;;4.57;;
40122;SDS011;25832;45.490;4.912;2022-11-12T08:08:43;6.50;;;4.68;;
40122;SDS011;25832;45.490;4.912;2022-11-12T08:11:09;20.67;;;12.35;;
40122;SDS011;25832;45.490;4.912;2022-11-12T08:13:34;22.70;;;12.48;;
40122;SDS011;25832;45.490;4.912;2022-11-12T08:16:00;16.30;;;9.07;;
40122;SDS011;25832;45.490;4.912;2022-11-12T08:18:26;12.73;;;8.48;;
40122;SDS011;25832;45.490;4.912;2022-11-12T08:20:57;14.48;;;6.65;;
40122;SDS011;25832;45.490;4.912;2022-11-12T08:23:27;12.57;;;7.93;;
40122;SDS011;25832;45.490;4.912;2022-11-12T08:25:59;21.70;;;11.98;;
40122;SDS011;25832;45.490;4.912;2022-11-12T08:28:29;20.88;;;11.73;;
40122;SDS011;25832;45.490;4.912;2022-11-12T08:30:56;16.38;;;9.93;;
40122;SDS011;25832;45.490;4.912;2022-11-12T08:33:27;16.50;;;9.63;;
40122;SDS011;25832;45.490;4.912;2022-11-12T08:35:53;8.73;;;5.55;;
40122;SDS011;25832;45.490;4.912;2022-11-12T08:38:19;12.18;;;6.57;;
40122;SDS011;25832;45.490;4.912;2022-11-12T08:40:45;10.82;;;7.95;;
40122;SDS011;25832;45.490;4.912;2022-11-12T08:43:10;9.57;;;6.78;;
40122;SDS011;25832;45.490;4.912;2022-11-12T08:45:37;11.43;;;7.80;;
40122;SDS011;25832;45.490;4.912;2022-11-12T08:48:08;19.15;;;9.68;;
40122;SDS011;25832;45.490;4.912;2022-11-12T08:50:36;17.55;;;8.75;;
40122;SDS011;25832;45.490;4.912;2022-11-12T08:53:03;18.85;;;7.93;;
40122;SDS011;25832;45.490;4.912;2022-11-12T08:55:30;14.77;;;8.32;;
40122;SDS011;25832;45.490;4.912;2022-11-12T08:57:57;12.93;;;6.72;;
40122;SDS011;25832;45.490;4.912;2022-11-12T09:00:26;12.57;;;5.75;;
40122;SDS011;25832;45.490;4.912;2022-11-12T09:03:01;25.60;;;7.18;;
40122;SDS011;25832;45.490;4.912;2022-11-12T09:05:28;13.73;;;7.00;;
40122;SDS011;25832;45.490;4.912;2022-11-12T09:07:55;26.48;;;8.07;;
40122;SDS011;25832;45.490;4.912;2022-11-12T09:10:22;24.83;;;11.20;;
40122;SDS011;25832;45.490;4.912;2022-11-12T09:12:51;23.05;;;12.38;;
40122;SDS011;25832;45.490;4.912;2022-11-12T09:15:18;31.43;;;10.07;;
40122;SDS011;25832;45.490;4.912;2022-11-12T09:17:45;24.90;;;9.50;;
40122;SDS011;25832;45.490;4.912;2022-11-12T09:20:10;16.45;;;8.85;;
40122;SDS011;25832;45.490;4.912;2022-11-12T09:22:36;17.98;;;9.70;;
40122;SDS011;25832;45.490;4.912;2022-11-12T09:25:02;40.08;;;9.30;;
40122;SDS011;25832;45.490;4.912;2022-11-12T09:27:28;14.20;;;8.25;;
40122;SDS011;25832;45.490;4.912;2022-11-12T09:29:54;23.95;;;9.82;;
40122;SDS011;25832;45.490;4.912;2022-11-12T09:32:19;26.40;;;10.85;;
40122;SDS011;25832;45.490;4.912;2022-11-12T09:34:45;25.55;;;9.38;;
40122;SDS011;25832;45.490;4.912;2022-11-12T09:37:11;23.05;;;10.57;;
40122;SDS011;25832;45.490;4.912;2022-11-12T09:39:36;38.15;;;10.55;;
40122;SDS011;25832;45.490;4.912;2022-11-12T09:42:06;50.10;;;12.25;;
40122;SDS011;25832;45.490;4.912;2022-11-12T09:44:34;27.80;;;11.48;;
40122;SDS011;25832;45.490;4.912;2022-11-12T09:49:35;24.10;;;9.18;;
40122;SDS011;25832;45.490;4.912;2022-11-12T09:52:15;30.05;;;10.02;;
40122;SDS011;25832;45.490;4.912;2022-11-12T09:54:45;14.55;;;9.73;;
40122;SDS011;25832;45.490;4.912;2022-11-12T09:57:16;22.98;;;10.80;;
40122;SDS011;25832;45.490;4.912;2022-11-12T09:59:41;14.75;;;9.68;;
40122;SDS011;25832;45.490;4.912;2022-11-12T10:13:18;25.77;;;12.23;;
40122;SDS011;25832;45.490;4.912;2022-11-12T10:23:58;24.95;;;11.57;;
40122;SDS011;25832;45.490;4.912;2022-11-12T10:26:25;23.40;;;11.02;;
40122;SDS011;25832;45.490;4.912;2022-11-12T10:31:36;21.88;;;11.85;;
40122;SDS011;25832;45.490;4.912;2022-11-12T10:36:38;21.35;;;12.30;;
40122;SDS011;25832;45.490;4.912;2022-11-12T10:41:33;21.17;;;12.25;;
40122;SDS011;25832;45.490;4.912;2022-11-12T10:44:00;18.80;;;12.18;;
40122;SDS011;25832;45.490;4.912;2022-11-12T10:46:32;27.92;;;14.20;;
40122;SDS011;25832;45.490;4.912;2022-11-12T10:51:40;33.70;;;15.48;;
40122;SDS011;25832;45.490;4.912;2022-11-12T10:54:28;36.90;;;14.43;;
40122;SDS011;25832;45.490;4.912;2022-11-12T10:57:09;24.27;;;14.18;;
40122;SDS011;25832;45.490;4.912;2022-11-12T10:59:43;27.98;;;13.90;;
40122;SDS011;25832;45.490;4.912;2022-11-12T11:02:14;47.40;;;16.60;;
40122;SDS011;25832;45.490;4.912;2022-11-12T11:04:41;47.47;;;17.67;;
40122;SDS011;25832;45.490;4.912;2022-11-12T11:09:50;40.40;;;16.63;;
40122;SDS011;25832;45.490;4.912;2022-11-12T11:12:24;29.55;;;16.55;;
40122;SDS011;25832;45.490;4.912;2022-11-12T11:17:43;27.67;;;15.50;;
40122;SDS011;25832;45.490;4.912;2022-11-12T11:20:15;29.23;;;16.85;;
40122;SDS011;25832;45.490;4.912;2022-11-12T11:25:36;29.15;;;16.98;;
40122;SDS011;25832;45.490;4.912;2022-11-12T11:30:36;31.90;;;16.92;;
40122;SDS011;25832;45.490;4.912;2022-11-12T11:38:40;27.50;;;16.92;;
40122;SDS011;25832;45.490;4.912;2022-11-12T11:44:15;36.70;;;20.20;;
40122;SDS011;25832;45.490;4.912;2022-11-12T11:46:57;23.25;;;13.73;;
40122;SDS011;25832;45.490;4.912;2022-11-12T11:49:45;19.05;;;12.23;;
40122;SDS011;25832;45.490;4.912;2022-11-12T11:52:45;17.50;;;12.18;;
40122;SDS011;25832;45.490;4.912;2022-11-12T12:00:23;34.17;;;19.45;;
40122;SDS011;25832;45.490;4.912;2022-11-12T12:19:50;13.13;;;7.82;;
40122;SDS011;25832;45.490;4.912;2022-11-12T12:22:48;11.25;;;7.10;;
40122;SDS011;25832;45.490;4.912;2022-11-12T12:25:22;11.70;;;8.23;;
40122;SDS011;25832;45.490;4.912;2022-11-12T12:28:52;13.88;;;6.93;;
40122;SDS011;25832;45.490;4.912;2022-11-12T12:30:50;10.48;;;6.88;;
40122;SDS011;25832;45.490;4.912;2022-11-12T12:33:22;15.68;;;7.68;;
40122;SDS011;25832;45.490;4.912;2022-11-12T12:36:14;13.52;;;7.45;;
40122;SDS011;25832;45.490;4.912;2022-11-12T12:38:47;12.15;;;6.60;;
40122;SDS011;25832;45.490;4.912;2022-11-12T12:41:24;8.18;;;5.20;;
40122;SDS011;25832;45.490;4.912;2022-11-12T12:44:01;9.23;;;7.20;;
40122;SDS011;25832;45.490;4.912;2022-11-12T12:46:29;12.38;;;7.38;;
40122;SDS011;25832;45.490;4.912;2022-11-12T12:49:00;10.73;;;7.47;;
40122;SDS011;25832;45.490;4.912;2022-11-12T12:51:30;13.15;;;7.88;;
40122;SDS011;25832;45.490;4.912;2022-11-12T12:53:57;13.63;;;8.13;;
40122;SDS011;25832;45.490;4.912;2022-11-12T12:58:54;14.90;;;8.38;;
40122;SDS011;25832;45.490;4.912;2022-11-12T13:04:02;11.50;;;6.43;;
40122;SDS011;25832;45.490;4.912;2022-11-12T13:19:35;10.65;;;7.93;;
40122;SDS011;25832;45.490;4.912;2022-11-12T13:32:55;11.52;;;7.97;;
40122;SDS011;25832;45.490;4.912;2022-11-12T13:35:34;12.38;;;8.40;;
40122;SDS011;25832;45.490;4.912;2022-11-12T13:43:36;13.40;;;8.45;;
40122;SDS011;25832;45.490;4.912;2022-11-12T13:51:02;13.52;;;8.48;;
40122;SDS011;25832;45.490;4.912;2022-11-12T13:53:31;14.20;;;8.38;;
40122;SDS011;25832;45.490;4.912;2022-11-12T13:55:57;12.88;;;7.93;;
40122;SDS011;25832;45.490;4.912;2022-11-12T13:58:33;17.63;;;8.82;;
40122;SDS011;25832;45.490;4.912;2022-11-12T14:01:01;11.07;;;7.70;;
40122;SDS011;25832;45.490;4.912;2022-11-12T14:03:30;11.50;;;7.47;;
40122;SDS011;25832;45.490;4.912;2022-11-12T14:20:16;10.60;;;6.97;;
40122;SDS011;25832;45.490;4.912;2022-11-12T14:23:22;14.23;;;8.32;;
40122;SDS011;25832;45.490;4.912;2022-11-12T14:25:51;16.45;;;9.32;;
40122;SDS011;25832;45.490;4.912;2022-11-12T14:28:26;16.58;;;8.05;;
40122;SDS011;25832;45.490;4.912;2022-11-12T14:30:52;14.23;;;8.18;;
40122;SDS011;25832;45.490;4.912;2022-11-12T14:33:20;12.43;;;8.57;;
40122;SDS011;25832;45.490;4.912;2022-11-12T14:35:47;13.15;;;8.07;;
40122;SDS011;25832;45.490;4.912;2022-11-12T14:40:45;16.17;;;8.68;;
40122;SDS011;25832;45.490;4.912;2022-11-12T14:44:01;16.25;;;9.18;;
40122;SDS011;25832;45.490;4.912;2022-11-12T14:46:29;12.93;;;8.80;;
40122;SDS011;25832;45.490;4.912;2022-11-12T14:49:31;20.95;;;12.88;;
40122;SDS011;25832;45.490;4.912;2022-11-12T14:54:33;25.90;;;13.93;;
40122;SDS011;25832;45.490;4.912;2022-11-12T14:57:04;22.33;;;13.65;;
40122;SDS011;25832;45.490;4.912;2022-11-12T14:59:30;40.65;;;23.85;;
40122;SDS011;25832;45.490;4.912;2022-11-12T15:02:13;26.23;;;16.38;;
40122;SDS011;25832;45.490;4.912;2022-11-12T15:13:28;19.05;;;11.20;;
40122;SDS011;25832;45.490;4.912;2022-11-12T15:16:00;15.85;;;10.98;;
40122;SDS011;25832;45.490;4.912;2022-11-12T15:18:32;17.88;;;10.60;;
40122;SDS011;25832;45.490;4.912;2022-11-12T15:23:49;22.63;;;14.55;;
40122;SDS011;25832;45.490;4.912;2022-11-12T15:26:25;40.40;;;28.48;;
40122;SDS011;25832;45.490;4.912;2022-11-12T15:28:58;25.02;;;18.75;;
40122;SDS011;25832;45.490;4.912;2022-11-12T15:31:58;19.58;;;13.13;;
40122;SDS011;25832;45.490;4.912;2022-11-12T15:37:05;36.65;;;23.80;;
40122;SDS011;25832;45.490;4.912;2022-11-12T15:39:41;20.90;;;13.63;;
40122;SDS011;25832;45.490;4.912;2022-11-12T15:45:01;21.13;;;12.75;;
40122;SDS011;25832;45.490;4.912;2022-11-12T15:47:33;18.92;;;12.43;;
40122;SDS011;25832;45.490;4.912;2022-11-12T15:49:58;13.65;;;8.65;;
40122;SDS011;25832;45.490;4.912;2022-11-12T15:52:24;14.48;;;8.65;;
40122;SDS011;25832;45.490;4.912;2022-11-12T15:54:50;11.18;;;7.57;;
40122;SDS011;25832;45.490;4.912;2022-11-12T15:57:20;9.45;;;7.63;;
40122;SDS011;25832;45.490;4.912;2022-11-12T16:00:03;12.00;;;7.45;;
40122;SDS011;25832;45.490;4.912;2022-11-12T16:02:47;11.65;;;8.25;;
40122;SDS011;25832;45.490;4.912;2022-11-12T16:05:39;11.95;;;7.38;;
40122;SDS011;25832;45.490;4.912;2022-11-12T16:08:05;12.35;;;7.60;;
40122;SDS011;25832;45.490;4.912;2022-11-12T16:10:31;19.90;;;10.38;;
40122;SDS011;25832;45.490;4.912;2022-11-12T16:12:57;11.75;;;8.32;;
40122;SDS011;25832;45.490;4.912;2022-11-12T16:15:24;14.60;;;8.90;;
40122;SDS011;25832;45.490;4.912;2022-11-12T16:17:51;14.60;;;10.30;;
40122;SDS011;25832;45.490;4.912;2022-11-12T16:22:47;19.40;;;11.75;;
40122;SDS011;25832;45.490;4.912;2022-11-12T16:25:14;19.02;;;10.65;;
40122;SDS011;25832;45.490;4.912;2022-11-12T16:27:40;21.02;;;12.02;;
40122;SDS011;25832;45.490;4.912;2022-11-12T16:30:12;22.05;;;13.68;;
40122;SDS011;25832;45.490;4.912;2022-11-12T16:32:38;20.15;;;12.73;;
40122;SDS011;25832;45.490;4.912;2022-11-12T16:35:05;21.92;;;12.80;;
40122;SDS011;25832;45.490;4.912;2022-11-12T16:37:31;17.83;;;12.02;;
40122;SDS011;25832;45.490;4.912;2022-11-12T16:39:56;20.33;;;11.82;;
40122;SDS011;25832;45.490;4.912;2022-11-12T16:42:22;19.10;;;10.65;;
40122;SDS011;25832;45.490;4.912;2022-11-12T16:44:48;21.52;;;12.38;;
40122;SDS011;25832;45.490;4.912;2022-11-12T16:47:13;21.45;;;11.80;;
40122;SDS011;25832;45.490;4.912;2022-11-12T16:49:39;22.92;;;12.57;;
40122;SDS011;25832;45.490;4.912;2022-11-12T16:52:07;21.42;;;12.35;;
40122;SDS011;25832;45.490;4.912;2022-11-12T16:54:34;24.50;;;13.93;;
40122;SDS011;25832;45.490;4.912;2022-11-12T16:56:59;22.02;;;13.38;;
40122;SDS011;25832;45.490;4.912;2022-11-12T16:59:25;26.67;;;15.55;;
40122;SDS011;25832;45.490;4.912;2022-11-12T17:01:51;23.92;;;14.18;;
40122;SDS011;25832;45.490;4.912;2022-11-12T17:04:16;23.60;;;14.02;;
40122;SDS011;25832;45.490;4.912;2022-11-12T17:06:42;21.50;;;14.02;;
40122;SDS011;25832;45.490;4.912;2022-11-12T17:09:09;25.40;;;14.45;;
40122;SDS011;25832;45.490;4.912;2022-11-12T17:11:35;20.73;;;12.77;;
40122;SDS011;25832;45.490;4.912;2022-11-12T17:14:02;21.42;;;12.80;;
40122;SDS011;25832;45.490;4.912;2022-11-12T17:16:29;22.42;;;14.30;;
40122;SDS011;25832;45.490;4.912;2022-11-12T17:18:56;25.38;;;15.70;;